createdAt,value
2019-04-07T00:02:17.915Z,90.40
2019-04-07T00:04:44.224Z,90.40
2019-04-07T00:07:12.058Z,90.40
2019-04-07T00:09:38.729Z,90.00
2019-04-07T00:12:04.983Z,90.60
2019-04-07T00:14:31.763Z,90.40
2019-04-07T00:16:58.007Z,90.20
2019-04-07T00:19:24.161Z,90.30
2019-04-07T00:21:50.334Z,90.30
2019-04-07T00:24:16.663Z,90.30
2019-04-07T00:26:43.135Z,90.60
2019-04-07T00:29:09.738Z,90.60
2019-04-07T00:31:36.027Z,90.60
2019-04-07T00:34:02.806Z,90.30
2019-04-07T00:36:29.640Z,90.50
2019-04-07T00:38:56.205Z,90.30
2019-04-07T00:41:22.436Z,90.40
2019-04-07T00:43:48.579Z,90.30
2019-04-07T00:46:15.237Z,90.30
2019-04-07T00:48:42.338Z,90.20
2019-04-07T00:51:08.667Z,90.00
2019-04-07T00:53:35.286Z,90.10
2019-04-07T00:56:02.866Z,90.00
2019-04-07T00:58:29.164Z,89.80
2019-04-07T01:00:55.312Z,90.00
2019-04-07T01:03:21.471Z,90.40
2019-04-07T01:05:47.941Z,89.80
2019-04-07T01:08:14.146Z,89.50
2019-04-07T01:10:40.541Z,90.00
2019-04-07T01:13:06.870Z,90.00
2019-04-07T01:15:33.130Z,90.80
2019-04-07T01:17:59.962Z,90.00
2019-04-07T01:20:26.242Z,90.10
2019-04-07T01:22:52.778Z,90.10
2019-04-07T01:25:19.353Z,89.80
2019-04-07T01:27:45.578Z,89.50
2019-04-07T01:30:12.331Z,89.40
2019-04-07T01:32:38.780Z,89.90
2019-04-07T01:35:06.348Z,90.00
2019-04-07T01:37:33.274Z,90.30
2019-04-07T01:39:59.414Z,89.60
2019-04-07T01:42:39.801Z,90.00
2019-04-07T01:45:08.533Z,90.00
2019-04-07T01:47:52.971Z,90.00
2019-04-07T01:50:27.390Z,90.30
2019-04-07T01:53:01.288Z,90.10
2019-04-07T01:55:35.747Z,90.30
2019-04-07T01:58:12.633Z,90.00
2019-04-07T02:00:40.701Z,90.10
2019-04-07T02:03:08.779Z,90.10
2019-04-07T02:05:39.606Z,90.00
2019-04-07T02:08:07.793Z,89.70
2019-04-07T02:10:39.569Z,90.00
2019-04-07T02:13:24.431Z,90.20
2019-04-07T02:15:56.037Z,90.00
2019-04-07T02:18:41.086Z,90.20
2019-04-07T02:21:09.708Z,89.80
2019-04-07T02:23:55.951Z,90.00
2019-04-07T02:26:39.090Z,90.00
2019-04-07T02:29:07.199Z,90.00
2019-04-07T02:31:47.377Z,90.00
2019-04-07T02:34:27.979Z,90.20
2019-04-07T02:37:13.981Z,90.10
2019-04-07T02:39:42.383Z,90.40
2019-04-07T02:42:13.610Z,90.30
2019-04-07T02:44:50.875Z,90.20
2019-04-07T02:47:22.598Z,90.20
2019-04-07T02:49:54.089Z,90.20
2019-04-07T02:52:39.096Z,90.50
2019-04-07T02:55:11.716Z,90.90
2019-04-07T02:57:40.416Z,90.60
2019-04-07T03:00:26.385Z,90.40
2019-04-07T03:02:55.806Z,91.00
2019-04-07T03:05:29.936Z,90.60
2019-04-07T03:08:08.634Z,90.40
2019-04-07T03:10:48.651Z,91.70
2019-04-07T03:13:19.335Z,90.50
2019-04-07T03:15:52.688Z,90.80
2019-04-07T03:18:25.248Z,90.40
2019-04-07T03:20:59.393Z,90.60
2019-04-07T03:23:33.399Z,90.80
2019-04-07T03:26:20.582Z,90.40
2019-04-07T03:29:05.363Z,90.30
2019-04-07T03:31:40.890Z,91.10
2019-04-07T03:34:15.142Z,91.00
2019-04-07T03:37:20.320Z,91.50
2019-04-07T03:39:35.947Z,90.80
2019-04-07T03:42:10.647Z,90.90
2019-04-07T03:44:47.809Z,91.30
2019-04-07T03:47:16.421Z,90.80
2019-04-07T03:49:45.633Z,91.10
2019-04-07T03:52:15.716Z,91.60
2019-04-07T03:54:52.798Z,90.90
2019-04-07T03:57:29.989Z,91.60
2019-04-07T03:59:58.229Z,91.00
2019-04-07T04:02:29.362Z,91.10
2019-04-07T04:04:57.803Z,91.80
2019-04-07T04:07:32.271Z,92.10
2019-04-07T04:09:58.525Z,92.10
2019-04-07T04:12:29.957Z,92.20
2019-04-07T04:14:58.867Z,92.80
2019-04-07T04:17:27.033Z,92.40
2019-04-07T04:19:53.386Z,92.40
2019-04-07T04:22:19.512Z,92.00
2019-04-07T04:24:45.674Z,92.30
2019-04-07T04:27:12.731Z,92.50
2019-04-07T04:29:39.393Z,93.20
2019-04-07T04:32:05.929Z,92.40
2019-04-07T04:34:32.940Z,92.40
2019-04-07T04:36:59.887Z,92.70
2019-04-07T04:39:26.338Z,93.00
2019-04-07T04:41:52.475Z,93.30
2019-04-07T04:44:18.747Z,92.80
2019-04-07T04:46:45.331Z,92.70
2019-04-07T04:49:11.843Z,92.00
2019-04-07T04:51:39.396Z,92.50
2019-04-07T04:54:07.154Z,93.20
2019-04-07T04:56:33.729Z,92.20
2019-04-07T04:58:59.904Z,93.10
2019-04-07T05:01:26.583Z,93.70
2019-04-07T05:03:53.866Z,93.50
2019-04-07T05:06:21.006Z,93.80
2019-04-07T05:08:47.237Z,94.10
2019-04-07T05:11:13.506Z,94.00
2019-04-07T05:13:39.767Z,94.00
2019-04-07T05:16:05.930Z,93.50
2019-04-07T05:18:32.356Z,93.70
2019-04-07T05:20:59.791Z,94.00
2019-04-07T05:23:26.016Z,93.60
2019-04-07T05:25:52.292Z,93.50
2019-04-07T05:28:19.173Z,94.20
2019-04-07T05:30:45.452Z,94.30
2019-04-07T05:33:12.120Z,94.50
2019-04-07T05:35:38.369Z,94.40
2019-04-07T05:38:06.610Z,94.50
2019-04-07T05:40:32.630Z,94.40
2019-04-07T05:42:59.854Z,94.20
2019-04-07T05:45:26.982Z,94.20
2019-04-07T05:47:54.281Z,93.80
2019-04-07T05:50:21.073Z,93.90
2019-04-07T05:52:47.653Z,94.10
2019-04-07T05:55:14.264Z,94.00
2019-04-07T05:57:40.605Z,94.10
2019-04-07T06:00:13.525Z,94.50
2019-04-07T06:02:37.832Z,94.00
2019-04-07T06:05:05.322Z,93.90
2019-04-07T06:07:34.853Z,93.70
2019-04-07T06:10:00.056Z,93.40
2019-04-07T06:12:27.043Z,92.90
2019-04-07T06:14:53.447Z,93.10
2019-04-07T06:17:21.085Z,92.70
2019-04-07T06:19:47.402Z,92.40
2019-04-07T06:22:17.457Z,92.40
2019-04-07T06:24:42.056Z,92.00
2019-04-07T06:27:08.803Z,91.40
2019-04-07T06:29:35.528Z,90.50
2019-04-07T06:32:03.606Z,90.00
2019-04-07T06:34:29.995Z,88.80
2019-04-07T06:36:56.527Z,86.60
2019-04-07T06:39:23.231Z,85.00
2019-04-07T06:41:49.495Z,84.90
2019-04-07T06:44:19.404Z,83.70
2019-04-07T06:46:49.203Z,83.00
2019-04-07T06:49:20.602Z,81.80
2019-04-07T06:51:52.712Z,81.30
2019-04-07T06:54:26.387Z,81.00
2019-04-07T06:57:12.245Z,79.20
2019-04-07T06:59:52.788Z,77.90
2019-04-07T07:02:37.989Z,78.00
2019-04-07T07:05:06.218Z,75.50
2019-04-07T07:07:40.166Z,75.30
2019-04-07T07:10:28.138Z,75.30
2019-04-07T07:12:53.358Z,73.70
2019-04-07T07:15:21.673Z,72.00
2019-04-07T07:17:51.905Z,70.00
2019-04-07T07:20:30.430Z,72.00
2019-04-07T07:23:09.868Z,70.30
2019-04-07T07:25:36.336Z,68.90
2019-04-07T07:28:03.274Z,70.20
2019-04-07T07:30:29.966Z,68.20
2019-04-07T07:32:56.475Z,68.30
2019-04-07T07:35:23.453Z,66.80
2019-04-07T07:37:50.040Z,66.90
2019-04-07T07:40:18.392Z,65.90
2019-04-07T07:42:46.103Z,64.80
2019-04-07T07:45:13.980Z,63.90
2019-04-07T07:47:40.287Z,64.70
2019-04-07T07:50:07.791Z,63.00
2019-04-07T07:52:35.144Z,62.10
2019-04-07T07:55:02.744Z,60.00
2019-04-07T07:57:29.192Z,60.90
2019-04-07T07:59:55.370Z,59.40
2019-04-07T08:02:21.964Z,59.40
2019-04-07T08:04:48.747Z,59.00
2019-04-07T08:07:16.341Z,58.70
2019-04-07T08:09:43.576Z,58.40
2019-04-07T08:12:10.302Z,58.90
2019-04-07T08:14:37.112Z,58.10
2019-04-07T08:17:04.114Z,57.90
2019-04-07T08:19:31.720Z,57.40
2019-04-07T08:21:58.448Z,56.80
2019-04-07T08:24:24.813Z,56.60
2019-04-07T08:26:50.964Z,54.70
2019-04-07T08:29:17.837Z,54.50
2019-04-07T08:31:44.844Z,54.30
2019-04-07T08:34:11.184Z,53.70
2019-04-07T08:36:38.071Z,54.10
2019-04-07T08:39:07.258Z,53.50
2019-04-07T08:41:33.699Z,53.50
2019-04-07T08:44:00.186Z,53.10
2019-04-07T08:46:30.642Z,52.70
2019-04-07T08:48:58.244Z,52.30
2019-04-07T08:51:24.944Z,52.30
2019-04-07T08:53:51.824Z,52.20
2019-04-07T08:56:18.668Z,51.20
2019-04-07T08:58:44.835Z,51.20
2019-04-07T09:01:11.037Z,52.00
2019-04-07T09:03:37.430Z,52.20
2019-04-07T09:06:04.562Z,50.50
2019-04-07T09:08:34.675Z,50.90
2019-04-07T09:11:13.197Z,50.10
2019-04-07T09:13:41.437Z,48.90
2019-04-07T09:16:13.591Z,48.90
2019-04-07T09:19:01.867Z,48.10
2019-04-07T09:21:38.029Z,47.90
2019-04-07T09:23:57.818Z,47.00
2019-04-07T09:26:32.092Z,46.80
2019-04-07T09:29:06.473Z,46.90
2019-04-07T09:31:52.971Z,46.50
2019-04-07T09:34:37.988Z,45.80
2019-04-07T09:37:12.021Z,45.80
2019-04-07T09:40:00.779Z,45.50
2019-04-07T09:42:43.603Z,45.30
2019-04-07T09:45:18.450Z,43.70
2019-04-07T09:47:48.388Z,44.20
2019-04-07T09:50:32.349Z,43.50
2019-04-07T09:53:00.546Z,43.30
2019-04-07T09:55:41.120Z,44.10
2019-04-07T09:58:26.286Z,43.20
2019-04-07T10:01:05.778Z,43.70
2019-04-07T10:03:38.160Z,44.00
2019-04-07T10:06:11.769Z,44.40
2019-04-07T10:08:56.519Z,43.30
2019-04-07T10:11:25.212Z,44.30
2019-04-07T10:13:53.506Z,44.00
2019-04-07T10:16:40.646Z,42.70
2019-04-07T10:19:25.773Z,43.60
2019-04-07T10:21:56.983Z,43.10
2019-04-07T10:24:43.751Z,44.10
2019-04-07T10:27:29.728Z,43.00
2019-04-07T10:29:58.031Z,44.30
2019-04-07T10:32:28.709Z,44.20
2019-04-07T10:35:02.581Z,43.70
2019-04-07T10:37:31.693Z,44.40
2019-04-07T10:40:19.501Z,44.10
2019-04-07T10:42:50.222Z,44.00
2019-04-07T10:45:18.339Z,43.90
2019-04-07T10:47:56.714Z,44.90
2019-04-07T10:50:41.375Z,45.10
2019-04-07T10:53:09.642Z,44.80
2019-04-07T10:55:40.641Z,45.20
2019-04-07T10:58:20.797Z,45.50
2019-04-07T11:00:51.487Z,45.70
2019-04-07T11:03:19.771Z,45.90
2019-04-07T11:05:53.793Z,45.00
2019-04-07T11:08:40.010Z,44.40
2019-04-07T11:11:10.889Z,45.00
2019-04-07T11:13:42.288Z,45.50
2019-04-07T11:16:13.421Z,46.70
2019-04-07T11:18:41.498Z,45.30
2019-04-07T11:21:28.223Z,45.70
2019-04-07T11:24:11.282Z,46.10
2019-04-07T11:26:46.172Z,45.30
2019-04-07T11:29:14.440Z,45.20
2019-04-07T11:31:43.958Z,45.50
2019-04-07T11:34:23.903Z,45.00
2019-04-07T11:36:54.980Z,46.20
2019-04-07T11:39:32.640Z,44.80
2019-04-07T11:42:06.423Z,44.40
2019-04-07T11:44:35.643Z,44.30
2019-04-07T11:47:20.744Z,44.00
2019-04-07T11:49:49.632Z,43.70
2019-04-07T11:52:17.997Z,43.90
2019-04-07T11:54:49.282Z,44.10
2019-04-07T11:57:34.060Z,44.30
2019-04-07T12:00:12.302Z,44.10
2019-04-07T12:02:56.885Z,43.50
2019-04-07T12:05:25.112Z,43.30
2019-04-07T12:07:58.172Z,42.60
2019-04-07T12:10:54.152Z,43.10
2019-04-07T12:13:24.022Z,42.70
2019-04-07T12:16:10.238Z,43.70
2019-04-07T12:18:41.218Z,42.80
2019-04-07T12:21:19.418Z,43.90
2019-04-07T12:23:45.019Z,43.30
2019-04-07T12:26:30.225Z,42.90
2019-04-07T12:29:04.365Z,43.10
2019-04-07T12:31:37.954Z,42.70
2019-04-07T12:34:12.198Z,43.40
2019-04-07T12:36:38.658Z,42.70
2019-04-07T12:39:22.453Z,42.50
2019-04-07T12:41:58.074Z,42.70
2019-04-07T12:44:26.534Z,43.20
2019-04-07T12:46:58.196Z,43.30
2019-04-07T12:49:29.856Z,43.60
2019-04-07T12:51:57.960Z,43.50
2019-04-07T12:54:26.711Z,43.50
2019-04-07T12:57:08.460Z,43.30
2019-04-07T12:59:37.521Z,43.30
2019-04-07T13:02:12.509Z,42.80
2019-04-07T13:04:46.417Z,43.50
2019-04-07T13:07:17.119Z,44.40
2019-04-07T13:09:47.118Z,43.50
2019-04-07T13:12:28.970Z,43.10
2019-04-07T13:15:08.546Z,43.60
2019-04-07T13:17:37.969Z,43.90
2019-04-07T13:20:23.414Z,43.10
2019-04-07T13:23:00.353Z,42.90
2019-04-07T13:25:37.454Z,43.20
2019-04-07T13:28:14.219Z,44.00
2019-04-07T13:31:00.574Z,42.70
2019-04-07T13:33:41.369Z,43.00
2019-04-07T13:36:26.838Z,43.50
2019-04-07T13:38:55.756Z,42.70
2019-04-07T13:41:24.080Z,43.00
2019-04-07T13:43:52.791Z,43.50
2019-04-07T13:46:36.219Z,42.90
2019-04-07T13:49:04.397Z,44.00
2019-04-07T13:51:36.520Z,43.60
2019-04-07T13:54:17.808Z,44.20
2019-04-07T13:56:55.828Z,43.70
2019-04-07T13:59:24.609Z,42.90
2019-04-07T14:01:55.659Z,43.60
2019-04-07T14:04:39.215Z,44.00
2019-04-07T14:07:10.029Z,43.80
2019-04-07T14:09:47.415Z,43.70
2019-04-07T14:12:21.643Z,43.60
2019-04-07T14:14:49.986Z,44.20
2019-04-07T14:17:27.331Z,44.70
2019-04-07T14:20:08.812Z,44.20
2019-04-07T14:22:46.551Z,44.70
2019-04-07T14:25:15.529Z,44.90
2019-04-07T14:27:43.757Z,44.70
2019-04-07T14:30:14.693Z,44.80
2019-04-07T14:32:50.736Z,45.00
2019-04-07T14:35:19.491Z,45.00
2019-04-07T14:37:53.255Z,45.20
2019-04-07T14:40:21.452Z,44.70
2019-04-07T14:42:49.656Z,44.50
2019-04-07T14:45:21.172Z,44.80
2019-04-07T14:47:59.239Z,44.80
2019-04-07T14:50:42.818Z,45.80
2019-04-07T14:53:14.245Z,44.70
2019-04-07T14:55:54.619Z,44.50
2019-04-07T14:58:34.767Z,44.30
2019-04-07T15:01:21.418Z,44.00
2019-04-07T15:03:48.052Z,44.10
2019-04-07T15:06:14.266Z,44.40
2019-04-07T15:08:48.451Z,44.90
2019-04-07T15:11:28.094Z,44.00
2019-04-07T15:13:57.259Z,44.10
2019-04-07T15:16:22.829Z,44.10
2019-04-07T15:18:48.988Z,43.60
2019-04-07T15:21:15.640Z,44.10
2019-04-07T15:23:45.000Z,44.50
2019-04-07T15:26:12.015Z,44.50
2019-04-07T15:28:38.452Z,44.40
2019-04-07T15:31:04.639Z,43.50
2019-04-07T15:33:33.636Z,44.30
2019-04-07T15:35:58.953Z,43.60
2019-04-07T15:38:27.151Z,43.90
2019-04-07T15:40:53.498Z,44.30
2019-04-07T15:43:19.959Z,44.00
2019-04-07T15:45:46.892Z,44.20
2019-04-07T15:48:13.680Z,44.70
2019-04-07T15:50:39.947Z,44.60
2019-04-07T15:53:06.164Z,44.20
2019-04-07T15:55:45.892Z,44.40
2019-04-07T15:58:02.001Z,45.10
2019-04-07T16:00:28.403Z,45.70
2019-04-07T16:02:54.906Z,45.30
2019-04-07T16:05:21.576Z,45.70
2019-04-07T16:07:48.143Z,46.00
2019-04-07T16:10:14.604Z,45.90
2019-04-07T16:12:46.521Z,46.00
2019-04-07T16:15:09.660Z,45.70
2019-04-07T16:17:37.189Z,46.20
2019-04-07T16:20:19.839Z,46.00
2019-04-07T16:22:36.686Z,45.50
2019-04-07T16:25:08.130Z,45.80
2019-04-07T16:27:36.577Z,45.90
2019-04-07T16:30:10.407Z,46.20
2019-04-07T16:32:37.614Z,45.70
2019-04-07T16:35:06.254Z,46.10
2019-04-07T16:37:32.394Z,45.60
2019-04-07T16:39:58.559Z,45.60
2019-04-07T16:42:25.436Z,45.40
2019-04-07T16:44:52.582Z,45.60
2019-04-07T16:47:23.240Z,45.70
2019-04-07T16:49:48.638Z,45.90
2019-04-07T16:52:15.502Z,45.80
2019-04-07T16:54:43.755Z,46.10
2019-04-07T16:57:10.515Z,46.30
2019-04-07T16:59:40.728Z,46.20
2019-04-07T17:02:05.153Z,46.30
2019-04-07T17:04:32.220Z,46.20
2019-04-07T17:07:03.424Z,47.20
2019-04-07T17:09:28.436Z,46.60
2019-04-07T17:11:54.786Z,46.70
2019-04-07T17:14:20.928Z,46.80
2019-04-07T17:16:48.340Z,47.00
2019-04-07T17:19:15.088Z,46.60
2019-04-07T17:21:42.839Z,46.80
2019-04-07T17:24:09.421Z,46.90
2019-04-07T17:26:38.361Z,46.90
2019-04-07T17:29:04.369Z,46.90
2019-04-07T17:31:32.199Z,46.90
2019-04-07T17:33:59.003Z,47.20
2019-04-07T17:36:25.169Z,47.30
2019-04-07T17:38:56.357Z,47.50
2019-04-07T17:41:23.382Z,47.80
2019-04-07T17:44:13.075Z,48.00
2019-04-07T17:46:39.577Z,47.90
2019-04-07T17:49:11.082Z,47.80
2019-04-07T17:51:42.197Z,47.80
2019-04-07T17:54:17.440Z,48.10
2019-04-07T17:56:43.243Z,48.10
2019-04-07T17:59:14.325Z,48.30
2019-04-07T18:01:47.310Z,48.40
2019-04-07T18:04:33.973Z,48.40
2019-04-07T18:07:06.137Z,49.00
2019-04-07T18:09:40.608Z,48.30
2019-04-07T18:12:27.609Z,48.20
2019-04-07T18:15:12.525Z,48.70
2019-04-07T18:17:46.007Z,48.70
2019-04-07T18:20:31.504Z,48.70
2019-04-07T18:23:16.562Z,48.70
2019-04-07T18:25:53.462Z,48.90
2019-04-07T18:28:39.100Z,49.10
2019-04-07T18:31:23.807Z,48.70
2019-04-07T18:34:04.372Z,48.90
2019-04-07T18:36:36.981Z,48.90
2019-04-07T18:39:26.019Z,49.00
2019-04-07T18:41:55.033Z,49.20
2019-04-07T18:44:29.486Z,49.50
2019-04-07T18:47:15.381Z,49.50
2019-04-07T18:49:52.385Z,49.70
2019-04-07T18:52:25.736Z,50.00
2019-04-07T18:55:10.213Z,49.80
2019-04-07T18:57:56.298Z,50.10
2019-04-07T19:00:41.410Z,50.70
2019-04-07T19:03:10.595Z,51.30
2019-04-07T19:05:52.991Z,52.70
2019-04-07T19:08:28.155Z,52.30
2019-04-07T19:11:12.325Z,52.70
2019-04-07T19:13:42.446Z,53.00
2019-04-07T19:16:13.508Z,53.10
2019-04-07T19:18:41.529Z,53.20
2019-04-07T19:21:25.351Z,53.40
2019-04-07T19:23:53.921Z,54.00
2019-04-07T19:26:24.731Z,54.10
2019-04-07T19:28:53.918Z,54.40
2019-04-07T19:31:28.097Z,54.60
2019-04-07T19:34:13.822Z,54.80
2019-04-07T19:36:47.202Z,54.80
2019-04-07T19:39:14.793Z,54.80
2019-04-07T19:41:45.781Z,54.90
2019-04-07T19:44:16.655Z,55.30
2019-04-07T19:46:44.162Z,55.40
2019-04-07T19:49:15.210Z,55.50
2019-04-07T19:51:42.487Z,55.70
2019-04-07T19:54:27.701Z,55.80
2019-04-07T19:56:58.387Z,55.90
2019-04-07T19:59:32.339Z,55.80
2019-04-07T20:02:01.785Z,55.90
2019-04-07T20:04:30.637Z,56.40
2019-04-07T20:07:02.193Z,56.60
2019-04-07T20:09:48.429Z,56.80
2019-04-07T20:12:20.625Z,57.00
2019-04-07T20:15:04.405Z,57.10
2019-04-07T20:17:45.278Z,57.20
2019-04-07T20:20:19.648Z,57.60
2019-04-07T20:23:04.594Z,57.50
2019-04-07T20:25:35.744Z,58.00
2019-04-07T20:28:10.891Z,58.00
2019-04-07T20:30:39.074Z,57.90
2019-04-07T20:33:10.177Z,58.20
2019-04-07T20:35:44.755Z,58.30
2019-04-07T20:38:16.068Z,58.60
2019-04-07T20:40:56.093Z,58.70
2019-04-07T20:43:40.623Z,58.90
2019-04-07T20:46:08.994Z,58.40
2019-04-07T20:48:45.792Z,59.00
2019-04-07T20:51:20.887Z,58.90
2019-04-07T20:54:05.922Z,58.90
2019-04-07T20:56:45.816Z,59.20
2019-04-07T20:59:28.900Z,59.30
2019-04-07T21:02:12.734Z,59.10
2019-04-07T21:04:41.722Z,59.40
2019-04-07T21:07:29.777Z,59.70
2019-04-07T21:10:09.528Z,59.60
2019-04-07T21:12:37.047Z,59.70
2019-04-07T21:15:18.180Z,60.50
2019-04-07T21:17:36.523Z,60.60
2019-04-07T21:20:16.219Z,60.40
2019-04-07T21:23:02.862Z,60.90
2019-04-07T21:25:48.911Z,61.50
2019-04-07T21:28:28.964Z,60.70
2019-04-07T21:30:57.832Z,61.10
2019-04-07T21:33:26.946Z,61.20
2019-04-07T21:36:12.084Z,61.10
2019-04-07T21:38:46.110Z,61.40
2019-04-07T21:41:32.815Z,61.70
2019-04-07T21:44:17.517Z,62.00
2019-04-07T21:46:55.430Z,62.10
2019-04-07T21:49:23.931Z,61.80
2019-04-07T21:51:55.457Z,61.90
2019-04-07T21:54:23.643Z,62.10
2019-04-07T21:56:58.152Z,62.20
2019-04-07T21:59:30.780Z,62.40
2019-04-07T22:02:02.818Z,62.40
2019-04-07T22:04:40.423Z,62.50
2019-04-07T22:07:09.088Z,62.50
2019-04-07T22:09:38.617Z,62.50
2019-04-07T22:12:05.171Z,62.60
2019-04-07T22:14:31.339Z,63.00
2019-04-07T22:17:00.331Z,63.10
2019-04-07T22:19:25.969Z,62.60
2019-04-07T22:21:55.762Z,62.60
2019-04-07T22:24:20.747Z,62.50
2019-04-07T22:26:49.740Z,62.50
2019-04-07T22:29:16.107Z,62.60
2019-04-07T22:31:47.857Z,62.60
2019-04-07T22:34:15.057Z,62.70
2019-04-07T22:36:45.067Z,62.90
2019-04-07T22:39:09.541Z,63.00
2019-04-07T22:41:36.974Z,63.20
2019-04-07T22:44:05.023Z,63.40
2019-04-07T22:46:31.324Z,63.70
2019-04-07T22:48:58.745Z,63.70
2019-04-07T22:51:25.804Z,64.20
2019-04-07T22:53:55.537Z,64.60
2019-04-07T22:56:20.331Z,65.20
2019-04-07T22:58:46.583Z,64.90
2019-04-07T23:01:12.941Z,64.80
2019-04-07T23:03:39.184Z,65.20
2019-04-07T23:06:05.751Z,65.60
2019-04-07T23:08:32.621Z,65.70
2019-04-07T23:11:00.053Z,66.80
2019-04-07T23:13:26.384Z,68.40
2019-04-07T23:15:53.343Z,68.10
2019-04-07T23:18:20.932Z,68.40
2019-04-07T23:20:47.924Z,70.40
2019-04-07T23:23:14.484Z,70.00
2019-04-07T23:25:40.720Z,72.20
2019-04-07T23:28:06.959Z,70.20
2019-04-07T23:30:33.443Z,73.40
2019-04-07T23:32:59.599Z,73.30
2019-04-07T23:35:25.763Z,72.10
2019-04-07T23:37:51.929Z,72.70
2019-04-07T23:40:18.378Z,72.40
2019-04-07T23:42:44.703Z,73.20
2019-04-07T23:45:11.222Z,71.80
2019-04-07T23:47:37.377Z,70.70
2019-04-07T23:50:05.428Z,71.00
2019-04-07T23:52:31.571Z,72.10
2019-04-07T23:54:58.782Z,74.20
2019-04-07T23:57:25.042Z,72.30
2019-04-07T23:59:51.566Z,75.70
